CA-0222 weather

CLOSED Marilla Airport
British Columbia, Canada

Public forecast

Using degrees Celsius for public forecast. Weather courtesy of forecast.io.

Closest aviation weather report (METAR) to Marilla Airport

Closest report is Bella Coola Airport, 82.4 nm (152.7 km) SSW. Retrieved 2020/07/09 01:00 UTC (44 minutes ago):

CYBD 090100Z 25008KT 12SM FEW025 FEW052 BKN060 BKN090 16/13 A2998 RMK SC1SC1SC5AC2 SC TR SC TR OCNL -SHRA CVCTV CLD EMBD LAST STFD OBS/NXT 091300Z SLP153 DENSITY ALT 200FT

Closest aviation forecast (TAF) to Marilla Airport

Closest forecast is Smithers Airport, 85.5 nm (158.3 km) NW. Retrieved 2020-07-09 01:00 UTC (44 minutes ago):

TAF CYYD 090038Z 0901/0906 VRB03KT P6SM SCT060 BKN090 TEMPO 0901/0906 P6SM -SHRA SCT030 BKN060 RMK NXT FCST WILL BE ISSUED AT 091345Z